Ozone, Tennessee
Current Conditions -  °F | °C
As of 9:53 PM on Wednesday 28 Jan 2015 (Local Time) from KCSV Reporting Station
Clear Clear  
Wind Chill:   Ceiling: Unl
Heat Index:   Visibility: 10mi
Dew Point: -13°   Wind: 3mph
Humidity: 35%   Direction: 150°SSE
Pressure: 30.18"   Gusts: NA
Location:  35.88°N, 84.81°W
Report Text: KCSV 290353Z AUTO 15003KT 10SM CLR 01/M13 A3018 RMK AO2 SLP233 T00111128
Loading
Personal Weather Stations






























Interactive Weather Map New forecast layout! Learn more

10-Day Weather Forecast

Advertisements
Track Severe Weather on mobile